sensor_id;sensor_type;location;lat;lon;timestamp;temperature;humidity
8856;DHT22;4464;50.882;4.730;2022-07-23T00:00:10;16.70;99.90
8856;DHT22;4464;50.882;4.730;2022-07-23T00:02:36;16.70;99.90
8856;DHT22;4464;50.882;4.730;2022-07-23T00:05:03;16.60;99.90
8856;DHT22;4464;50.882;4.730;2022-07-23T00:07:31;16.60;99.90
8856;DHT22;4464;50.882;4.730;2022-07-23T00:09:57;16.60;99.90
8856;DHT22;4464;50.882;4.730;2022-07-23T00:12:22;16.60;99.90
8856;DHT22;4464;50.882;4.730;2022-07-23T00:14:49;16.50;99.90
8856;DHT22;4464;50.882;4.730;2022-07-23T00:17:15;16.60;99.90
8856;DHT22;4464;50.882;4.730;2022-07-23T00:19:43;16.50;99.90
8856;DHT22;4464;50.882;4.730;2022-07-23T00:22:09;16.40;99.90
8856;DHT22;4464;50.882;4.730;2022-07-23T00:24:37;16.50;99.90
8856;DHT22;4464;50.882;4.730;2022-07-23T00:27:03;16.40;99.90
8856;DHT22;4464;50.882;4.730;2022-07-23T00:29:29;16.30;99.90
8856;DHT22;4464;50.882;4.730;2022-07-23T00:31:55;16.40;99.90
8856;DHT22;4464;50.882;4.730;2022-07-23T00:34:21;16.30;99.90
8856;DHT22;4464;50.882;4.730;2022-07-23T00:36:47;16.30;99.90
8856;DHT22;4464;50.882;4.730;2022-07-23T00:39:13;16.20;99.90
8856;DHT22;4464;50.882;4.730;2022-07-23T00:41:42;16.20;99.90
8856;DHT22;4464;50.882;4.730;2022-07-23T00:44:26;16.20;99.90
8856;DHT22;4464;50.882;4.730;2022-07-23T00:46:57;16.20;99.90
8856;DHT22;4464;50.882;4.730;2022-07-23T00:49:29;16.30;99.90
8856;DHT22;4464;50.882;4.730;2022-07-23T00:52:01;16.20;99.90
8856;DHT22;4464;50.882;4.730;2022-07-23T00:54:27;16.20;99.90
8856;DHT22;4464;50.882;4.730;2022-07-23T00:56:56;16.10;99.90
8856;DHT22;4464;50.882;4.730;2022-07-23T00:59:24;16.00;99.90
8856;DHT22;4464;50.882;4.730;2022-07-23T01:01:50;16.00;99.90
8856;DHT22;4464;50.882;4.730;2022-07-23T01:04:16;16.10;99.90
8856;DHT22;4464;50.882;4.730;2022-07-23T01:06:44;16.10;99.90
8856;DHT22;4464;50.882;4.730;2022-07-23T01:09:11;16.00;99.90
8856;DHT22;4464;50.882;4.730;2022-07-23T01:11:37;16.00;99.90
8856;DHT22;4464;50.882;4.730;2022-07-23T01:14:13;15.90;99.90
8856;DHT22;4464;50.882;4.730;2022-07-23T01:16:41;15.90;99.90
8856;DHT22;4464;50.882;4.730;2022-07-23T01:19:08;15.90;99.90
8856;DHT22;4464;50.882;4.730;2022-07-23T01:21:40;15.90;99.90
8856;DHT22;4464;50.882;4.730;2022-07-23T01:24:07;15.90;99.90
8856;DHT22;4464;50.882;4.730;2022-07-23T01:26:36;15.90;99.90
8856;DHT22;4464;50.882;4.730;2022-07-23T01:29:04;15.80;99.90
8856;DHT22;4464;50.882;4.730;2022-07-23T01:31:31;15.70;99.90
8856;DHT22;4464;50.882;4.730;2022-07-23T01:33:57;15.70;99.90
8856;DHT22;4464;50.882;4.730;2022-07-23T01:36:25;15.60;99.90
8856;DHT22;4464;50.882;4.730;2022-07-23T01:38:52;15.70;99.90
8856;DHT22;4464;50.882;4.730;2022-07-23T01:41:21;15.70;99.90
8856;DHT22;4464;50.882;4.730;2022-07-23T01:43:47;15.70;99.90
8856;DHT22;4464;50.882;4.730;2022-07-23T01:46:13;15.60;99.90
8856;DHT22;4464;50.882;4.730;2022-07-23T01:48:41;15.60;99.90
8856;DHT22;4464;50.882;4.730;2022-07-23T01:51:08;15.60;99.90
8856;DHT22;4464;50.882;4.730;2022-07-23T01:53:33;15.50;99.90
8856;DHT22;4464;50.882;4.730;2022-07-23T01:56:05;15.60;99.90
8856;DHT22;4464;50.882;4.730;2022-07-23T01:58:33;15.60;99.90
8856;DHT22;4464;50.882;4.730;2022-07-23T02:00:59;15.50;99.90
8856;DHT22;4464;50.882;4.730;2022-07-23T02:03:28;15.50;99.90
8856;DHT22;4464;50.882;4.730;2022-07-23T02:05:54;15.50;99.90
8856;DHT22;4464;50.882;4.730;2022-07-23T02:08:21;15.50;99.90
8856;DHT22;4464;50.882;4.730;2022-07-23T02:10:48;15.50;99.90
8856;DHT22;4464;50.882;4.730;2022-07-23T02:13:14;15.40;99.90
8856;DHT22;4464;50.882;4.730;2022-07-23T02:15:40;15.30;99.90
8856;DHT22;4464;50.882;4.730;2022-07-23T02:18:05;15.30;99.90
8856;DHT22;4464;50.882;4.730;2022-07-23T02:20:32;15.30;99.90
8856;DHT22;4464;50.882;4.730;2022-07-23T02:22:58;15.30;99.90
8856;DHT22;4464;50.882;4.730;2022-07-23T02:25:26;15.30;99.90
8856;DHT22;4464;50.882;4.730;2022-07-23T02:27:52;15.40;99.90
8856;DHT22;4464;50.882;4.730;2022-07-23T02:30:19;15.40;99.90
8856;DHT22;4464;50.882;4.730;2022-07-23T02:32:48;15.30;99.90
8856;DHT22;4464;50.882;4.730;2022-07-23T02:35:13;15.20;99.90
8856;DHT22;4464;50.882;4.730;2022-07-23T02:37:39;15.30;99.90
8856;DHT22;4464;50.882;4.730;2022-07-23T02:40:05;15.10;99.90
8856;DHT22;4464;50.882;4.730;2022-07-23T02:42:31;15.10;99.90
8856;DHT22;4464;50.882;4.730;2022-07-23T02:44:57;15.10;99.90
8856;DHT22;4464;50.882;4.730;2022-07-23T02:47:23;15.10;99.90
8856;DHT22;4464;50.882;4.730;2022-07-23T02:49:49;15.20;99.90
8856;DHT22;4464;50.882;4.730;2022-07-23T02:52:15;15.20;99.90
8856;DHT22;4464;50.882;4.730;2022-07-23T02:54:41;15.20;99.90
8856;DHT22;4464;50.882;4.730;2022-07-23T02:57:07;15.20;99.90
8856;DHT22;4464;50.882;4.730;2022-07-23T02:59:32;15.10;99.90
8856;DHT22;4464;50.882;4.730;2022-07-23T03:01:58;15.10;99.90
8856;DHT22;4464;50.882;4.730;2022-07-23T03:04:24;15.10;99.90
8856;DHT22;4464;50.882;4.730;2022-07-23T03:06:52;15.00;99.90
8856;DHT22;4464;50.882;4.730;2022-07-23T03:09:18;15.00;99.90
8856;DHT22;4464;50.882;4.730;2022-07-23T03:11:44;15.00;99.90
8856;DHT22;4464;50.882;4.730;2022-07-23T03:14:10;14.90;99.90
8856;DHT22;4464;50.882;4.730;2022-07-23T03:16:38;14.90;99.90
8856;DHT22;4464;50.882;4.730;2022-07-23T03:19:04;14.80;99.90
8856;DHT22;4464;50.882;4.730;2022-07-23T03:21:32;14.90;99.90
8856;DHT22;4464;50.882;4.730;2022-07-23T03:23:59;14.90;99.90
8856;DHT22;4464;50.882;4.730;2022-07-23T03:26:25;14.90;99.90
8856;DHT22;4464;50.882;4.730;2022-07-23T03:28:53;14.90;99.90
8856;DHT22;4464;50.882;4.730;2022-07-23T03:31:22;14.90;99.90
8856;DHT22;4464;50.882;4.730;2022-07-23T03:33:50;14.90;99.90
8856;DHT22;4464;50.882;4.730;2022-07-23T03:36:16;14.90;99.90
8856;DHT22;4464;50.882;4.730;2022-07-23T03:38:45;14.90;99.90
8856;DHT22;4464;50.882;4.730;2022-07-23T03:41:15;14.80;99.90
8856;DHT22;4464;50.882;4.730;2022-07-23T03:43:46;14.90;99.90
8856;DHT22;4464;50.882;4.730;2022-07-23T03:46:12;14.90;99.90
8856;DHT22;4464;50.882;4.730;2022-07-23T03:48:38;14.90;99.90
8856;DHT22;4464;50.882;4.730;2022-07-23T03:51:04;14.90;99.90
8856;DHT22;4464;50.882;4.730;2022-07-23T03:53:33;14.80;99.90
8856;DHT22;4464;50.882;4.730;2022-07-23T03:55:59;14.90;99.90
8856;DHT22;4464;50.882;4.730;2022-07-23T03:58:25;14.90;99.90
8856;DHT22;4464;50.882;4.730;2022-07-23T04:00:51;14.90;99.90
8856;DHT22;4464;50.882;4.730;2022-07-23T04:03:17;14.90;99.90
8856;DHT22;4464;50.882;4.730;2022-07-23T04:05:43;14.80;99.90
8856;DHT22;4464;50.882;4.730;2022-07-23T04:08:09;14.70;99.90
8856;DHT22;4464;50.882;4.730;2022-07-23T04:10:37;14.70;99.90
8856;DHT22;4464;50.882;4.730;2022-07-23T04:13:03;14.70;99.90
8856;DHT22;4464;50.882;4.730;2022-07-23T04:15:29;14.80;99.90
8856;DHT22;4464;50.882;4.730;2022-07-23T04:17:55;14.90;99.90
8856;DHT22;4464;50.882;4.730;2022-07-23T04:20:21;14.90;99.90
8856;DHT22;4464;50.882;4.730;2022-07-23T04:22:46;14.90;99.90
8856;DHT22;4464;50.882;4.730;2022-07-23T04:25:12;15.00;99.90
8856;DHT22;4464;50.882;4.730;2022-07-23T04:27:39;15.00;99.90
8856;DHT22;4464;50.882;4.730;2022-07-23T04:30:07;15.00;99.90
8856;DHT22;4464;50.882;4.730;2022-07-23T04:32:36;15.00;99.90
8856;DHT22;4464;50.882;4.730;2022-07-23T04:35:02;15.00;99.90
8856;DHT22;4464;50.882;4.730;2022-07-23T04:37:31;15.00;99.90
8856;DHT22;4464;50.882;4.730;2022-07-23T04:40:00;15.10;99.90
8856;DHT22;4464;50.882;4.730;2022-07-23T04:42:26;15.10;99.90
8856;DHT22;4464;50.882;4.730;2022-07-23T04:44:54;15.10;99.90
8856;DHT22;4464;50.882;4.730;2022-07-23T04:47:20;15.20;99.90
8856;DHT22;4464;50.882;4.730;2022-07-23T04:49:46;15.20;99.90
8856;DHT22;4464;50.882;4.730;2022-07-23T04:52:11;15.20;99.90
8856;DHT22;4464;50.882;4.730;2022-07-23T04:54:38;15.20;99.90
8856;DHT22;4464;50.882;4.730;2022-07-23T04:57:03;15.20;99.90
8856;DHT22;4464;50.882;4.730;2022-07-23T04:59:29;15.30;99.90
8856;DHT22;4464;50.882;4.730;2022-07-23T05:01:59;15.40;99.90
8856;DHT22;4464;50.882;4.730;2022-07-23T05:04:25;15.40;99.90
8856;DHT22;4464;50.882;4.730;2022-07-23T05:06:50;15.40;99.90
8856;DHT22;4464;50.882;4.730;2022-07-23T05:09:19;15.50;99.90
8856;DHT22;4464;50.882;4.730;2022-07-23T05:11:44;15.40;99.90
8856;DHT22;4464;50.882;4.730;2022-07-23T05:14:12;15.30;99.90
8856;DHT22;4464;50.882;4.730;2022-07-23T05:16:41;15.30;99.90
8856;DHT22;4464;50.882;4.730;2022-07-23T05:19:08;15.30;99.90
8856;DHT22;4464;50.882;4.730;2022-07-23T05:21:33;15.30;99.90
8856;DHT22;4464;50.882;4.730;2022-07-23T05:23:59;15.40;99.90
8856;DHT22;4464;50.882;4.730;2022-07-23T05:26:25;15.40;99.90
8856;DHT22;4464;50.882;4.730;2022-07-23T05:28:51;15.50;99.90
8856;DHT22;4464;50.882;4.730;2022-07-23T05:31:18;15.50;99.90
8856;DHT22;4464;50.882;4.730;2022-07-23T05:33:44;15.50;99.90
8856;DHT22;4464;50.882;4.730;2022-07-23T05:36:10;15.50;99.90
8856;DHT22;4464;50.882;4.730;2022-07-23T05:38:38;15.60;99.90
8856;DHT22;4464;50.882;4.730;2022-07-23T05:41:06;15.70;99.90
8856;DHT22;4464;50.882;4.730;2022-07-23T05:43:35;15.90;99.90
8856;DHT22;4464;50.882;4.730;2022-07-23T05:46:01;15.90;99.90
8856;DHT22;4464;50.882;4.730;2022-07-23T05:48:29;15.90;99.90
8856;DHT22;4464;50.882;4.730;2022-07-23T05:50:55;16.00;99.90
8856;DHT22;4464;50.882;4.730;2022-07-23T05:53:24;16.20;99.90
8856;DHT22;4464;50.882;4.730;2022-07-23T05:55:50;16.40;99.90
8856;DHT22;4464;50.882;4.730;2022-07-23T05:58:15;16.50;99.90
8856;DHT22;4464;50.882;4.730;2022-07-23T06:00:43;16.50;99.90
8856;DHT22;4464;50.882;4.730;2022-07-23T06:03:09;16.70;99.90
8856;DHT22;4464;50.882;4.730;2022-07-23T06:05:34;16.90;99.90
8856;DHT22;4464;50.882;4.730;2022-07-23T06:08:00;17.10;99.90
8856;DHT22;4464;50.882;4.730;2022-07-23T06:10:26;17.10;99.90
8856;DHT22;4464;50.882;4.730;2022-07-23T06:12:52;17.10;99.90
8856;DHT22;4464;50.882;4.730;2022-07-23T06:15:17;17.10;99.90
8856;DHT22;4464;50.882;4.730;2022-07-23T06:17:43;17.20;99.90
8856;DHT22;4464;50.882;4.730;2022-07-23T06:20:09;17.40;99.90
8856;DHT22;4464;50.882;4.730;2022-07-23T06:22:36;17.40;99.90
8856;DHT22;4464;50.882;4.730;2022-07-23T06:25:02;17.50;99.90
8856;DHT22;4464;50.882;4.730;2022-07-23T06:27:28;17.60;99.90
8856;DHT22;4464;50.882;4.730;2022-07-23T06:29:54;17.60;99.90
8856;DHT22;4464;50.882;4.730;2022-07-23T06:32:22;17.60;99.90
8856;DHT22;4464;50.882;4.730;2022-07-23T06:34:50;17.70;99.90
8856;DHT22;4464;50.882;4.730;2022-07-23T06:37:16;17.70;99.90
8856;DHT22;4464;50.882;4.730;2022-07-23T06:39:42;17.70;99.90
8856;DHT22;4464;50.882;4.730;2022-07-23T06:42:08;17.70;99.90
8856;DHT22;4464;50.882;4.730;2022-07-23T06:44:35;17.70;99.90
8856;DHT22;4464;50.882;4.730;2022-07-23T06:47:01;17.80;99.90
8856;DHT22;4464;50.882;4.730;2022-07-23T06:49:27;17.90;99.90
8856;DHT22;4464;50.882;4.730;2022-07-23T06:51:53;18.00;99.90
8856;DHT22;4464;50.882;4.730;2022-07-23T06:54:19;18.10;99.90
8856;DHT22;4464;50.882;4.730;2022-07-23T06:56:45;18.20;99.90
8856;DHT22;4464;50.882;4.730;2022-07-23T06:59:11;18.10;99.90
8856;DHT22;4464;50.882;4.730;2022-07-23T07:01:38;18.30;99.90
8856;DHT22;4464;50.882;4.730;2022-07-23T07:04:03;18.30;99.90
8856;DHT22;4464;50.882;4.730;2022-07-23T07:06:34;18.50;99.90
8856;DHT22;4464;50.882;4.730;2022-07-23T07:09:01;18.70;99.90
8856;DHT22;4464;50.882;4.730;2022-07-23T07:11:29;18.70;99.90
8856;DHT22;4464;50.882;4.730;2022-07-23T07:13:55;18.80;99.90
8856;DHT22;4464;50.882;4.730;2022-07-23T07:16:21;18.80;99.90
8856;DHT22;4464;50.882;4.730;2022-07-23T07:18:47;18.90;99.90
8856;DHT22;4464;50.882;4.730;2022-07-23T07:21:14;18.90;99.90
8856;DHT22;4464;50.882;4.730;2022-07-23T07:23:40;19.00;99.90
8856;DHT22;4464;50.882;4.730;2022-07-23T07:26:06;19.10;99.90
8856;DHT22;4464;50.882;4.730;2022-07-23T07:28:31;19.10;99.90
8856;DHT22;4464;50.882;4.730;2022-07-23T07:30:57;19.00;99.90
8856;DHT22;4464;50.882;4.730;2022-07-23T07:33:26;19.10;99.90
8856;DHT22;4464;50.882;4.730;2022-07-23T07:35:52;19.30;99.90
8856;DHT22;4464;50.882;4.730;2022-07-23T07:38:18;19.40;99.90
8856;DHT22;4464;50.882;4.730;2022-07-23T07:40:46;19.40;99.90
8856;DHT22;4464;50.882;4.730;2022-07-23T07:43:11;19.50;99.90
8856;DHT22;4464;50.882;4.730;2022-07-23T07:45:37;19.50;99.90
8856;DHT22;4464;50.882;4.730;2022-07-23T07:48:06;19.60;99.90
8856;DHT22;4464;50.882;4.730;2022-07-23T07:50:34;19.50;99.90
8856;DHT22;4464;50.882;4.730;2022-07-23T07:53:01;19.40;99.90
8856;DHT22;4464;50.882;4.730;2022-07-23T07:55:30;19.40;99.90
8856;DHT22;4464;50.882;4.730;2022-07-23T07:57:56;19.60;99.90
8856;DHT22;4464;50.882;4.730;2022-07-23T08:00:22;19.80;99.90
8856;DHT22;4464;50.882;4.730;2022-07-23T08:02:51;20.00;99.90
8856;DHT22;4464;50.882;4.730;2022-07-23T08:05:26;20.20;99.90
8856;DHT22;4464;50.882;4.730;2022-07-23T08:07:53;20.40;99.90
8856;DHT22;4464;50.882;4.730;2022-07-23T08:10:20;20.60;99.90
8856;DHT22;4464;50.882;4.730;2022-07-23T08:12:50;20.70;99.90
8856;DHT22;4464;50.882;4.730;2022-07-23T08:15:21;20.90;99.90
8856;DHT22;4464;50.882;4.730;2022-07-23T08:17:50;21.00;99.90
8856;DHT22;4464;50.882;4.730;2022-07-23T08:20:20;21.00;99.90
8856;DHT22;4464;50.882;4.730;2022-07-23T08:22:49;21.20;99.90
8856;DHT22;4464;50.882;4.730;2022-07-23T08:25:19;21.30;99.90
8856;DHT22;4464;50.882;4.730;2022-07-23T08:27:44;21.50;99.90
8856;DHT22;4464;50.882;4.730;2022-07-23T08:30:11;21.40;99.90
8856;DHT22;4464;50.882;4.730;2022-07-23T08:33:00;21.60;99.90
8856;DHT22;4464;50.882;4.730;2022-07-23T08:35:32;21.40;99.90
8856;DHT22;4464;50.882;4.730;2022-07-23T08:38:00;21.30;99.90
8856;DHT22;4464;50.882;4.730;2022-07-23T08:40:28;21.20;99.90
8856;DHT22;4464;50.882;4.730;2022-07-23T08:42:55;21.50;99.90
8856;DHT22;4464;50.882;4.730;2022-07-23T08:45:24;21.60;99.90
8856;DHT22;4464;50.882;4.730;2022-07-23T08:47:55;21.80;99.90
8856;DHT22;4464;50.882;4.730;2022-07-23T08:50:23;22.10;99.90
8856;DHT22;4464;50.882;4.730;2022-07-23T08:52:50;22.20;99.90
8856;DHT22;4464;50.882;4.730;2022-07-23T08:55:18;22.30;99.90
8856;DHT22;4464;50.882;4.730;2022-07-23T08:57:45;22.40;99.90
8856;DHT22;4464;50.882;4.730;2022-07-23T09:00:14;22.30;99.90
8856;DHT22;4464;50.882;4.730;2022-07-23T09:02:44;22.30;99.90
8856;DHT22;4464;50.882;4.730;2022-07-23T09:05:11;22.60;99.90
8856;DHT22;4464;50.882;4.730;2022-07-23T09:08:03;22.80;99.90
8856;DHT22;4464;50.882;4.730;2022-07-23T09:10:29;22.90;99.90
8856;DHT22;4464;50.882;4.730;2022-07-23T09:12:57;23.20;99.90
8856;DHT22;4464;50.882;4.730;2022-07-23T09:15:23;23.40;99.90
8856;DHT22;4464;50.882;4.730;2022-07-23T09:17:49;23.60;99.90
8856;DHT22;4464;50.882;4.730;2022-07-23T09:20:16;23.40;99.90
8856;DHT22;4464;50.882;4.730;2022-07-23T09:22:45;23.80;99.90
8856;DHT22;4464;50.882;4.730;2022-07-23T09:25:17;24.40;99.90
8856;DHT22;4464;50.882;4.730;2022-07-23T09:27:48;25.50;99.90
8856;DHT22;4464;50.882;4.730;2022-07-23T09:30:16;26.80;99.90
8856;DHT22;4464;50.882;4.730;2022-07-23T09:32:42;27.60;99.90
8856;DHT22;4464;50.882;4.730;2022-07-23T09:35:08;28.20;99.90
8856;DHT22;4464;50.882;4.730;2022-07-23T09:37:37;28.70;99.90
8856;DHT22;4464;50.882;4.730;2022-07-23T09:40:09;29.40;99.90
8856;DHT22;4464;50.882;4.730;2022-07-23T09:42:38;29.70;99.40
8856;DHT22;4464;50.882;4.730;2022-07-23T09:45:13;30.30;98.60
8856;DHT22;4464;50.882;4.730;2022-07-23T09:47:39;30.50;97.20
8856;DHT22;4464;50.882;4.730;2022-07-23T09:50:09;30.80;97.50
8856;DHT22;4464;50.882;4.730;2022-07-23T09:52:46;31.10;95.70
8856;DHT22;4464;50.882;4.730;2022-07-23T09:55:15;31.20;95.30
8856;DHT22;4464;50.882;4.730;2022-07-23T09:57:42;31.10;94.20
8856;DHT22;4464;50.882;4.730;2022-07-23T10:00:12;31.30;93.50
8856;DHT22;4464;50.882;4.730;2022-07-23T10:02:47;31.50;92.80
8856;DHT22;4464;50.882;4.730;2022-07-23T10:05:15;32.10;93.00
8856;DHT22;4464;50.882;4.730;2022-07-23T10:07:44;32.20;91.40
8856;DHT22;4464;50.882;4.730;2022-07-23T10:10:11;31.80;90.80
8856;DHT22;4464;50.882;4.730;2022-07-23T10:12:41;32.10;90.60
8856;DHT22;4464;50.882;4.730;2022-07-23T10:15:32;32.70;89.40
8856;DHT22;4464;50.882;4.730;2022-07-23T10:17:57;32.90;87.30
8856;DHT22;4464;50.882;4.730;2022-07-23T10:20:23;32.90;86.30
8856;DHT22;4464;50.882;4.730;2022-07-23T10:25:59;34.10;81.70
8856;DHT22;4464;50.882;4.730;2022-07-23T10:28:41;34.40;82.10
8856;DHT22;4464;50.882;4.730;2022-07-23T10:36:50;34.00;80.40
8856;DHT22;4464;50.882;4.730;2022-07-23T10:41:45;33.50;81.00
8856;DHT22;4464;50.882;4.730;2022-07-23T10:44:21;34.10;77.80
8856;DHT22;4464;50.882;4.730;2022-07-23T10:46:55;35.00;77.00
8856;DHT22;4464;50.882;4.730;2022-07-23T10:49:29;35.20;75.10
8856;DHT22;4464;50.882;4.730;2022-07-23T10:54:44;33.80;76.40
8856;DHT22;4464;50.882;4.730;2022-07-23T10:57:11;33.50;77.40
8856;DHT22;4464;50.882;4.730;2022-07-23T11:02:30;35.40;74.90
8856;DHT22;4464;50.882;4.730;2022-07-23T11:05:14;35.10;74.10
8856;DHT22;4464;50.882;4.730;2022-07-23T11:13:30;32.00;78.20
8856;DHT22;4464;50.882;4.730;2022-07-23T11:24:07;35.70;71.10
8856;DHT22;4464;50.882;4.730;2022-07-23T11:26:50;36.10;70.00
8856;DHT22;4464;50.882;4.730;2022-07-23T11:37:01;36.50;68.80
8856;DHT22;4464;50.882;4.730;2022-07-23T11:39:29;36.20;69.90
8856;DHT22;4464;50.882;4.730;2022-07-23T11:41:56;36.90;69.20
8856;DHT22;4464;50.882;4.730;2022-07-23T11:44:34;36.60;69.00
8856;DHT22;4464;50.882;4.730;2022-07-23T11:47:03;36.30;68.20
8856;DHT22;4464;50.882;4.730;2022-07-23T11:49:32;36.40;67.60
8856;DHT22;4464;50.882;4.730;2022-07-23T11:52:13;37.00;66.90
8856;DHT22;4464;50.882;4.730;2022-07-23T11:57:25;37.00;64.60
8856;DHT22;4464;50.882;4.730;2022-07-23T11:59:53;38.20;65.40
8856;DHT22;4464;50.882;4.730;2022-07-23T12:02:20;38.00;64.40
8856;DHT22;4464;50.882;4.730;2022-07-23T12:04:49;37.60;64.50
8856;DHT22;4464;50.882;4.730;2022-07-23T12:07:34;37.00;64.00
8856;DHT22;4464;50.882;4.730;2022-07-23T12:12:51;37.40;64.00
8856;DHT22;4464;50.882;4.730;2022-07-23T12:15:30;37.60;63.70
8856;DHT22;4464;50.882;4.730;2022-07-23T12:17:59;38.20;63.90
8856;DHT22;4464;50.882;4.730;2022-07-23T12:20:27;38.40;62.90
8856;DHT22;4464;50.882;4.730;2022-07-23T12:22:59;37.80;62.70
8856;DHT22;4464;50.882;4.730;2022-07-23T12:25:30;37.40;62.10
8856;DHT22;4464;50.882;4.730;2022-07-23T12:28:11;37.60;63.40
8856;DHT22;4464;50.882;4.730;2022-07-23T12:30:41;38.30;61.40
8856;DHT22;4464;50.882;4.730;2022-07-23T12:33:10;38.70;61.50
8856;DHT22;4464;50.882;4.730;2022-07-23T12:35:44;37.80;60.20
8856;DHT22;4464;50.882;4.730;2022-07-23T12:38:17;36.90;62.40
8856;DHT22;4464;50.882;4.730;2022-07-23T12:40:50;36.00;65.10
8856;DHT22;4464;50.882;4.730;2022-07-23T12:48:49;36.70;63.80
8856;DHT22;4464;50.882;4.730;2022-07-23T12:51:23;35.40;64.40
8856;DHT22;4464;50.882;4.730;2022-07-23T12:54:08;34.30;66.40
8856;DHT22;4464;50.882;4.730;2022-07-23T12:56:39;35.50;65.10
8856;DHT22;4464;50.882;4.730;2022-07-23T12:59:11;37.30;62.50
8856;DHT22;4464;50.882;4.730;2022-07-23T13:01:39;37.60;61.10
8856;DHT22;4464;50.882;4.730;2022-07-23T13:06:38;38.00;61.50
8856;DHT22;4464;50.882;4.730;2022-07-23T13:09:08;36.40;62.20
8856;DHT22;4464;50.882;4.730;2022-07-23T13:11:34;32.40;68.30
8856;DHT22;4464;50.882;4.730;2022-07-23T13:14:01;31.00;72.70
8856;DHT22;4464;50.882;4.730;2022-07-23T13:16:28;30.70;74.30
8856;DHT22;4464;50.882;4.730;2022-07-23T13:18:59;31.70;73.40
8856;DHT22;4464;50.882;4.730;2022-07-23T13:21:28;32.60;70.40
8856;DHT22;4464;50.882;4.730;2022-07-23T13:23:56;32.70;70.00
8856;DHT22;4464;50.882;4.730;2022-07-23T13:26:24;32.30;71.40
8856;DHT22;4464;50.882;4.730;2022-07-23T13:28:50;31.20;72.70
8856;DHT22;4464;50.882;4.730;2022-07-23T13:31:36;30.80;73.80
8856;DHT22;4464;50.882;4.730;2022-07-23T13:34:02;31.10;73.70
8856;DHT22;4464;50.882;4.730;2022-07-23T13:36:29;30.90;74.70
8856;DHT22;4464;50.882;4.730;2022-07-23T13:38:56;30.90;74.30
8856;DHT22;4464;50.882;4.730;2022-07-23T13:41:25;31.00;74.20
8856;DHT22;4464;50.882;4.730;2022-07-23T13:43:51;30.00;75.70
8856;DHT22;4464;50.882;4.730;2022-07-23T13:46:17;29.10;78.60
8856;DHT22;4464;50.882;4.730;2022-07-23T13:48:42;28.60;80.00
8856;DHT22;4464;50.882;4.730;2022-07-23T13:51:09;29.70;78.70
8856;DHT22;4464;50.882;4.730;2022-07-23T13:53:34;31.30;76.50
8856;DHT22;4464;50.882;4.730;2022-07-23T13:56:03;30.40;76.40
8856;DHT22;4464;50.882;4.730;2022-07-23T13:58:29;30.50;75.80
8856;DHT22;4464;50.882;4.730;2022-07-23T14:00:56;28.90;78.60
8856;DHT22;4464;50.882;4.730;2022-07-23T14:03:23;29.10;79.30
8856;DHT22;4464;50.882;4.730;2022-07-23T14:05:53;29.60;77.90
8856;DHT22;4464;50.882;4.730;2022-07-23T14:08:22;29.60;77.90
8856;DHT22;4464;50.882;4.730;2022-07-23T14:10:48;30.40;78.30
8856;DHT22;4464;50.882;4.730;2022-07-23T14:13:13;32.20;75.50
8856;DHT22;4464;50.882;4.730;2022-07-23T14:15:39;34.20;71.90
8856;DHT22;4464;50.882;4.730;2022-07-23T14:18:09;33.20;70.80
8856;DHT22;4464;50.882;4.730;2022-07-23T14:20:35;33.20;71.20
8856;DHT22;4464;50.882;4.730;2022-07-23T14:23:03;32.40;72.40
8856;DHT22;4464;50.882;4.730;2022-07-23T14:25:29;33.20;71.30
8856;DHT22;4464;50.882;4.730;2022-07-23T14:27:58;33.00;72.00
8856;DHT22;4464;50.882;4.730;2022-07-23T14:30:23;32.40;72.70
8856;DHT22;4464;50.882;4.730;2022-07-23T14:32:56;31.80;73.80
8856;DHT22;4464;50.882;4.730;2022-07-23T14:35:24;31.40;75.50
8856;DHT22;4464;50.882;4.730;2022-07-23T14:37:50;31.40;74.50
8856;DHT22;4464;50.882;4.730;2022-07-23T14:40:16;31.40;75.70
8856;DHT22;4464;50.882;4.730;2022-07-23T14:42:42;32.10;75.10
8856;DHT22;4464;50.882;4.730;2022-07-23T14:45:07;33.70;72.50
8856;DHT22;4464;50.882;4.730;2022-07-23T14:47:36;35.20;69.30
8856;DHT22;4464;50.882;4.730;2022-07-23T14:50:02;35.30;67.60
8856;DHT22;4464;50.882;4.730;2022-07-23T14:52:28;34.70;68.30
8856;DHT22;4464;50.882;4.730;2022-07-23T14:54:54;34.50;69.00
8856;DHT22;4464;50.882;4.730;2022-07-23T14:57:23;34.60;69.00
8856;DHT22;4464;50.882;4.730;2022-07-23T14:59:49;33.80;69.30
8856;DHT22;4464;50.882;4.730;2022-07-23T15:02:15;34.40;69.50
8856;DHT22;4464;50.882;4.730;2022-07-23T15:04:41;35.50;68.30
8856;DHT22;4464;50.882;4.730;2022-07-23T15:07:07;35.60;67.10
8856;DHT22;4464;50.882;4.730;2022-07-23T15:09:33;35.10;67.30
8856;DHT22;4464;50.882;4.730;2022-07-23T15:12:02;34.60;67.20
8856;DHT22;4464;50.882;4.730;2022-07-23T15:14:33;33.00;69.70
8856;DHT22;4464;50.882;4.730;2022-07-23T15:16:59;33.20;70.70
8856;DHT22;4464;50.882;4.730;2022-07-23T15:19:25;33.30;69.90
8856;DHT22;4464;50.882;4.730;2022-07-23T15:21:52;33.60;68.80
8856;DHT22;4464;50.882;4.730;2022-07-23T15:24:22;34.30;69.30
8856;DHT22;4464;50.882;4.730;2022-07-23T15:26:48;35.40;66.40
8856;DHT22;4464;50.882;4.730;2022-07-23T15:29:14;35.70;65.60
8856;DHT22;4464;50.882;4.730;2022-07-23T15:31:40;36.80;64.20
8856;DHT22;4464;50.882;4.730;2022-07-23T15:34:06;38.10;63.20
8856;DHT22;4464;50.882;4.730;2022-07-23T15:36:35;38.10;61.20
8856;DHT22;4464;50.882;4.730;2022-07-23T15:39:01;37.60;61.70
8856;DHT22;4464;50.882;4.730;2022-07-23T15:41:27;36.60;63.20
8856;DHT22;4464;50.882;4.730;2022-07-23T15:43:53;36.50;63.10
8856;DHT22;4464;50.882;4.730;2022-07-23T15:46:22;36.30;62.70
8856;DHT22;4464;50.882;4.730;2022-07-23T15:48:51;34.60;65.20
8856;DHT22;4464;50.882;4.730;2022-07-23T15:51:17;34.70;65.60
8856;DHT22;4464;50.882;4.730;2022-07-23T15:53:43;32.80;68.40
8856;DHT22;4464;50.882;4.730;2022-07-23T15:56:10;34.10;67.50
8856;DHT22;4464;50.882;4.730;2022-07-23T15:58:37;35.30;65.90
8856;DHT22;4464;50.882;4.730;2022-07-23T16:01:05;36.50;63.20
8856;DHT22;4464;50.882;4.730;2022-07-23T16:03:35;36.10;63.60
8856;DHT22;4464;50.882;4.730;2022-07-23T16:06:04;37.10;62.70
8856;DHT22;4464;50.882;4.730;2022-07-23T16:08:31;37.70;62.10
8856;DHT22;4464;50.882;4.730;2022-07-23T16:10:57;37.20;61.70
8856;DHT22;4464;50.882;4.730;2022-07-23T16:13:24;37.30;61.20
8856;DHT22;4464;50.882;4.730;2022-07-23T16:15:51;36.10;62.70
8856;DHT22;4464;50.882;4.730;2022-07-23T16:18:21;35.60;62.80
8856;DHT22;4464;50.882;4.730;2022-07-23T16:20:48;35.20;64.30
8856;DHT22;4464;50.882;4.730;2022-07-23T16:23:16;35.20;65.70
8856;DHT22;4464;50.882;4.730;2022-07-23T16:25:44;35.90;63.90
8856;DHT22;4464;50.882;4.730;2022-07-23T16:28:12;36.00;62.90
8856;DHT22;4464;50.882;4.730;2022-07-23T16:30:39;36.10;62.60
8856;DHT22;4464;50.882;4.730;2022-07-23T16:33:07;35.70;61.50
8856;DHT22;4464;50.882;4.730;2022-07-23T16:35:34;36.10;62.70
8856;DHT22;4464;50.882;4.730;2022-07-23T16:38:01;36.00;61.60
8856;DHT22;4464;50.882;4.730;2022-07-23T16:40:31;36.00;61.80
8856;DHT22;4464;50.882;4.730;2022-07-23T16:42:58;36.30;61.60
8856;DHT22;4464;50.882;4.730;2022-07-23T16:45:26;36.80;60.80
8856;DHT22;4464;50.882;4.730;2022-07-23T16:47:52;36.40;61.90
8856;DHT22;4464;50.882;4.730;2022-07-23T16:50:18;35.60;63.20
8856;DHT22;4464;50.882;4.730;2022-07-23T16:52:44;35.40;63.90
8856;DHT22;4464;50.882;4.730;2022-07-23T16:55:10;34.80;65.30
8856;DHT22;4464;50.882;4.730;2022-07-23T16:57:37;34.90;66.30